createdAt,value
2018-06-29T00:00:13.348Z,11.53
2018-06-29T00:02:42.093Z,12.57
2018-06-29T00:05:10.755Z,12.60
2018-06-29T00:07:39.436Z,12.87
2018-06-29T00:10:08.266Z,12.73
2018-06-29T00:12:36.910Z,12.40
2018-06-29T00:15:05.840Z,13.50
2018-06-29T00:17:34.506Z,13.97
2018-06-29T00:20:03.527Z,13.40
2018-06-29T00:22:32.194Z,14.73
2018-06-29T00:25:00.897Z,13.07
2018-06-29T00:27:29.550Z,14.67
2018-06-29T00:29:58.239Z,13.70
2018-06-29T00:32:26.910Z,14.10
2018-06-29T00:34:55.831Z,13.60
2018-06-29T00:37:24.238Z,14.77
2018-06-29T00:39:52.875Z,14.17
2018-06-29T00:42:21.606Z,14.23
2018-06-29T00:44:50.286Z,14.40
2018-06-29T00:47:19.059Z,14.13
2018-06-29T00:49:47.798Z,14.37
2018-06-29T00:52:16.518Z,14.20
2018-06-29T00:54:45.209Z,15.63
2018-06-29T00:57:13.878Z,14.80
2018-06-29T00:59:42.552Z,14.70
2018-06-29T01:02:11.236Z,14.50
2018-06-29T01:04:39.992Z,14.60
2018-06-29T01:07:08.662Z,15.37
2018-06-29T01:09:37.322Z,14.70
2018-06-29T01:12:05.989Z,14.90
2018-06-29T01:14:34.687Z,14.63
2018-06-29T01:17:03.474Z,15.53
2018-06-29T01:19:33.086Z,14.40
2018-06-29T01:22:01.771Z,16.37
2018-06-29T01:24:30.571Z,15.63
2018-06-29T01:26:59.250Z,16.77
2018-06-29T01:29:27.937Z,16.07
2018-06-29T01:31:56.604Z,16.30
2018-06-29T01:34:25.316Z,17.17
2018-06-29T01:36:54.193Z,17.33
2018-06-29T01:39:22.930Z,16.67
2018-06-29T01:41:51.582Z,16.77
2018-06-29T01:44:26.298Z,16.83
2018-06-29T01:46:55.055Z,17.47
2018-06-29T01:49:23.875Z,15.70
2018-06-29T01:51:52.566Z,15.43
2018-06-29T01:54:21.278Z,16.93
2018-06-29T01:56:49.983Z,16.97
2018-06-29T01:59:18.644Z,17.00
2018-06-29T02:01:47.846Z,16.60
2018-06-29T02:04:16.496Z,16.73
2018-06-29T02:06:45.234Z,15.70
2018-06-29T02:09:14.118Z,16.10
2018-06-29T02:11:42.817Z,17.20
2018-06-29T02:14:11.539Z,15.67
2018-06-29T02:16:40.196Z,17.77
2018-06-29T02:19:08.949Z,15.90
2018-06-29T02:21:37.723Z,16.50
2018-06-29T02:24:06.611Z,17.07
2018-06-29T02:26:35.371Z,15.73
2018-06-29T02:29:04.205Z,17.03
2018-06-29T02:31:32.914Z,18.00
2018-06-29T02:34:01.625Z,16.87
2018-06-29T02:36:30.496Z,16.70
2018-06-29T02:38:59.122Z,15.70
2018-06-29T02:41:27.938Z,17.60
2018-06-29T02:43:56.693Z,15.77
2018-06-29T02:46:25.446Z,17.07
2018-06-29T02:48:54.083Z,17.57
2018-06-29T02:51:28.463Z,16.53
2018-06-29T02:56:25.842Z,16.70
2018-06-29T02:58:54.506Z,16.87
2018-06-29T03:01:23.341Z,16.10
2018-06-29T03:03:51.964Z,16.40
2018-06-29T03:06:20.606Z,17.10
2018-06-29T03:08:49.255Z,15.53
2018-06-29T03:11:17.871Z,16.30
2018-06-29T03:13:46.476Z,15.93
2018-06-29T03:16:15.128Z,16.10
2018-06-29T03:18:43.709Z,16.60
2018-06-29T03:21:12.359Z,14.57
2018-06-29T03:23:41.135Z,14.80
2018-06-29T03:26:10.039Z,15.30
2018-06-29T03:28:38.668Z,15.30
2018-06-29T03:31:07.288Z,15.13
2018-06-29T03:33:35.965Z,13.70
2018-06-29T03:36:04.634Z,14.33
2018-06-29T03:38:33.244Z,14.57
2018-06-29T03:41:01.884Z,13.10
2018-06-29T03:43:30.562Z,14.20
2018-06-29T03:45:59.196Z,13.30
2018-06-29T03:48:27.850Z,13.17
2018-06-29T03:50:56.495Z,14.03
2018-06-29T03:53:26.039Z,13.00
2018-06-29T03:55:54.617Z,13.57
2018-06-29T03:58:23.264Z,12.10
2018-06-29T04:00:51.914Z,12.97
2018-06-29T04:03:20.609Z,13.93
2018-06-29T04:05:49.189Z,13.90
2018-06-29T04:08:17.834Z,12.80
2018-06-29T04:10:46.455Z,12.70
2018-06-29T04:13:15.060Z,12.70
2018-06-29T04:15:43.732Z,12.83
2018-06-29T04:18:12.350Z,12.57
2018-06-29T04:20:40.991Z,11.70
2018-06-29T04:23:09.681Z,12.27
2018-06-29T04:25:38.347Z,12.87
2018-06-29T04:28:07.041Z,12.93
2018-06-29T04:30:35.660Z,13.33
2018-06-29T04:33:04.255Z,13.60
2018-06-29T04:35:33.853Z,11.53
2018-06-29T04:38:02.495Z,13.07
2018-06-29T04:40:31.777Z,12.53
2018-06-29T04:43:00.480Z,11.80
2018-06-29T04:45:29.604Z,13.07
2018-06-29T04:47:59.097Z,12.40
2018-06-29T04:50:27.718Z,12.13
2018-06-29T04:52:56.322Z,12.17
2018-06-29T04:55:24.997Z,11.37
2018-06-29T04:57:53.638Z,12.10
2018-06-29T05:00:22.351Z,12.53
2018-06-29T05:02:51.037Z,11.53
2018-06-29T05:05:19.722Z,12.20
2018-06-29T05:07:48.309Z,12.50
2018-06-29T05:10:17.280Z,11.20
2018-06-29T05:12:45.998Z,12.67
2018-06-29T05:15:14.801Z,12.40
2018-06-29T05:17:43.469Z,12.10
2018-06-29T05:20:12.181Z,12.57
2018-06-29T05:22:40.848Z,14.37
2018-06-29T05:25:09.526Z,13.47
2018-06-29T05:27:38.520Z,12.03
2018-06-29T05:30:07.954Z,12.53
2018-06-29T05:32:36.616Z,12.63
2018-06-29T05:35:05.430Z,12.30
2018-06-29T05:37:34.678Z,12.70
2018-06-29T05:40:03.385Z,12.60
2018-06-29T05:42:32.212Z,11.77
2018-06-29T05:45:00.936Z,12.20
2018-06-29T05:47:29.759Z,11.63
2018-06-29T05:49:58.456Z,13.10
2018-06-29T05:52:27.237Z,12.33
2018-06-29T05:54:55.955Z,11.20
2018-06-29T05:57:24.656Z,12.10
2018-06-29T05:59:53.285Z,11.57
2018-06-29T06:02:22.051Z,12.70
2018-06-29T06:04:50.738Z,11.50
2018-06-29T06:07:19.471Z,12.20
2018-06-29T06:09:48.242Z,12.07
2018-06-29T06:12:16.834Z,11.77
2018-06-29T06:14:46.111Z,11.80
2018-06-29T06:17:15.400Z,11.77
2018-06-29T06:19:54.976Z,11.77
2018-06-29T06:22:23.644Z,10.97
2018-06-29T06:24:52.312Z,11.10
2018-06-29T06:27:21.055Z,11.40
2018-06-29T06:29:49.691Z,11.03
2018-06-29T06:32:18.395Z,11.60
2018-06-29T06:34:47.058Z,11.47
2018-06-29T06:37:15.694Z,11.10
2018-06-29T06:39:44.340Z,11.23
2018-06-29T06:42:13.046Z,11.33
2018-06-29T06:44:42.163Z,11.40
2018-06-29T06:47:10.915Z,10.20
2018-06-29T06:49:40.504Z,10.53
2018-06-29T06:52:09.321Z,10.60
2018-06-29T06:54:38.098Z,11.00
2018-06-29T06:57:06.887Z,11.13
2018-06-29T06:59:35.623Z,10.03
2018-06-29T07:02:04.459Z,10.57
2018-06-29T07:04:33.136Z,11.37
2018-06-29T07:07:01.865Z,10.63
2018-06-29T07:09:30.638Z,10.20
2018-06-29T07:11:59.418Z,10.40
2018-06-29T07:14:28.089Z,9.97
2018-06-29T07:16:56.762Z,9.87
2018-06-29T07:19:25.471Z,9.50
2018-06-29T07:21:54.169Z,9.37
2018-06-29T07:24:23.191Z,10.00
2018-06-29T07:26:51.841Z,9.63
2018-06-29T07:29:20.538Z,9.43
2018-06-29T07:31:49.188Z,8.60
2018-06-29T07:34:17.969Z,9.23
2018-06-29T07:36:46.915Z,9.03
2018-06-29T07:39:15.674Z,9.20
2018-06-29T07:41:44.883Z,9.67
2018-06-29T07:44:13.561Z,9.13
2018-06-29T07:46:42.267Z,9.10
2018-06-29T07:49:10.918Z,9.03
2018-06-29T07:51:39.601Z,8.23
2018-06-29T07:54:08.245Z,8.10
2018-06-29T07:56:36.965Z,9.20
2018-06-29T07:59:05.689Z,7.70
2018-06-29T08:01:34.382Z,8.80
2018-06-29T08:04:03.067Z,8.50
2018-06-29T08:06:31.754Z,8.30
2018-06-29T08:09:00.430Z,9.33
2018-06-29T08:11:29.154Z,9.53
2018-06-29T08:13:57.807Z,8.90
2018-06-29T08:16:26.466Z,8.43
2018-06-29T08:18:55.187Z,8.73
2018-06-29T08:21:23.868Z,8.87
2018-06-29T08:23:52.573Z,8.60
2018-06-29T08:26:23.898Z,8.73
2018-06-29T08:28:52.847Z,8.90
2018-06-29T08:31:21.583Z,9.30
2018-06-29T08:33:50.893Z,9.03
2018-06-29T08:36:19.588Z,8.43
2018-06-29T08:38:48.336Z,10.10
2018-06-29T08:41:17.112Z,8.90
2018-06-29T08:43:45.809Z,9.10
2018-06-29T08:46:14.473Z,8.23
2018-06-29T08:48:43.154Z,8.90
2018-06-29T08:51:11.911Z,8.27
2018-06-29T08:53:40.525Z,8.57
2018-06-29T08:56:09.278Z,9.00
2018-06-29T08:58:37.911Z,9.30
2018-06-29T09:01:06.926Z,7.90
2018-06-29T09:03:35.561Z,9.40
2018-06-29T09:06:04.265Z,9.87
2018-06-29T09:08:33.009Z,9.20
2018-06-29T09:11:01.814Z,9.53
2018-06-29T09:13:30.432Z,9.00
2018-06-29T09:15:59.251Z,9.63
2018-06-29T09:18:27.940Z,9.50
2018-06-29T09:20:56.631Z,9.73
2018-06-29T09:23:25.274Z,10.60
2018-06-29T09:25:53.948Z,9.27
2018-06-29T09:28:22.646Z,10.17
2018-06-29T09:30:51.273Z,10.00
2018-06-29T09:33:19.977Z,9.73
2018-06-29T09:35:48.668Z,10.13
2018-06-29T09:38:17.328Z,9.60
2018-06-29T09:40:46.085Z,10.30
2018-06-29T09:43:14.858Z,10.83
2018-06-29T09:45:43.659Z,10.80
2018-06-29T09:48:12.390Z,11.53
2018-06-29T09:50:41.126Z,11.30
2018-06-29T09:53:09.805Z,11.60
2018-06-29T09:55:38.509Z,10.80
2018-06-29T09:58:07.200Z,10.57
2018-06-29T10:00:35.890Z,11.33
2018-06-29T10:03:04.625Z,12.30
2018-06-29T10:05:33.301Z,11.53
2018-06-29T10:08:02.051Z,10.43
2018-06-29T10:10:30.763Z,10.83
2018-06-29T10:12:59.570Z,10.17
2018-06-29T10:15:28.234Z,10.70
2018-06-29T10:17:57.821Z,10.90
2018-06-29T10:20:26.553Z,10.00
2018-06-29T10:22:55.290Z,10.50
2018-06-29T10:25:24.244Z,10.33
2018-06-29T10:27:52.851Z,10.87
2018-06-29T10:30:21.533Z,9.73
2018-06-29T10:32:50.250Z,11.17
2018-06-29T10:35:18.895Z,10.60
2018-06-29T10:37:47.556Z,10.00
2018-06-29T10:40:16.274Z,11.13
2018-06-29T10:42:44.983Z,10.73
2018-06-29T10:45:13.672Z,11.30
2018-06-29T10:47:43.601Z,11.40
2018-06-29T10:50:12.406Z,11.30
2018-06-29T10:52:41.467Z,10.60
2018-06-29T10:55:10.212Z,9.97
2018-06-29T10:57:38.966Z,10.20
2018-06-29T11:00:07.733Z,10.03
2018-06-29T11:02:36.417Z,10.40
2018-06-29T11:05:05.315Z,8.80
2018-06-29T11:07:34.025Z,9.50
2018-06-29T11:10:02.769Z,9.90
2018-06-29T11:12:31.541Z,9.90
2018-06-29T11:15:00.279Z,9.33
2018-06-29T11:20:02.738Z,9.83
2018-06-29T11:22:31.470Z,8.77
2018-06-29T11:25:00.933Z,9.63
2018-06-29T11:27:29.633Z,9.50
2018-06-29T11:29:59.378Z,9.43
2018-06-29T11:32:28.118Z,8.20
2018-06-29T11:34:56.785Z,9.17
2018-06-29T11:37:25.570Z,8.33
2018-06-29T11:39:54.349Z,8.37
2018-06-29T11:42:22.985Z,7.93
2018-06-29T11:44:51.879Z,8.60
2018-06-29T11:47:20.557Z,8.20
2018-06-29T11:49:49.256Z,8.30
2018-06-29T11:52:17.934Z,8.83
2018-06-29T11:54:46.622Z,7.67
2018-06-29T11:57:15.303Z,8.20
2018-06-29T11:59:44.036Z,8.77
2018-06-29T12:02:12.801Z,8.03
2018-06-29T12:04:41.429Z,8.80
2018-06-29T12:07:10.157Z,7.73
2018-06-29T12:09:38.785Z,7.67
2018-06-29T12:12:07.429Z,8.10
2018-06-29T12:14:36.131Z,8.73
2018-06-29T12:17:04.772Z,7.53
2018-06-29T12:19:33.504Z,8.40
2018-06-29T12:22:02.770Z,7.97
2018-06-29T12:24:31.474Z,7.73
2018-06-29T12:27:00.415Z,8.17
2018-06-29T12:29:29.166Z,7.77
2018-06-29T12:31:57.898Z,7.73
2018-06-29T12:34:26.671Z,7.97
2018-06-29T12:36:55.365Z,7.90
2018-06-29T12:39:24.059Z,7.90
2018-06-29T12:41:52.793Z,8.10
2018-06-29T12:44:21.613Z,8.17
2018-06-29T12:46:50.399Z,7.50
2018-06-29T12:49:19.094Z,7.47
2018-06-29T12:51:47.878Z,7.50
2018-06-29T12:54:16.598Z,7.70
2018-06-29T12:56:45.355Z,7.50
2018-06-29T12:59:14.393Z,8.00
2018-06-29T13:01:43.134Z,7.40
2018-06-29T13:04:11.846Z,6.63
2018-06-29T13:06:40.537Z,7.77
2018-06-29T13:09:10.491Z,8.23
2018-06-29T13:11:39.109Z,7.90
2018-06-29T13:14:07.822Z,7.70
2018-06-29T13:16:36.674Z,7.87
2018-06-29T13:19:05.389Z,8.17
2018-06-29T13:21:34.050Z,7.80
2018-06-29T13:24:03.662Z,7.30
2018-06-29T13:26:32.391Z,6.93
2018-06-29T13:29:01.980Z,7.77
2018-06-29T13:31:30.689Z,7.67
2018-06-29T13:33:59.459Z,8.50
2018-06-29T13:36:28.221Z,6.73
2018-06-29T13:38:58.603Z,7.40
2018-06-29T13:41:27.227Z,6.83
2018-06-29T13:43:55.971Z,7.10
2018-06-29T13:46:24.596Z,9.27
2018-06-29T13:48:53.890Z,6.70
2018-06-29T13:51:22.591Z,6.87
2018-06-29T13:53:51.540Z,6.93
2018-06-29T13:56:20.173Z,6.90
2018-06-29T13:58:49.091Z,7.83
2018-06-29T14:01:17.874Z,6.27
2018-06-29T14:03:46.531Z,6.90
2018-06-29T14:06:15.318Z,6.83
2018-06-29T14:08:43.931Z,6.67
2018-06-29T14:11:12.622Z,6.57
2018-06-29T14:13:41.272Z,7.13
2018-06-29T14:16:09.957Z,7.80
2018-06-29T14:18:39.066Z,7.03
2018-06-29T14:21:07.842Z,6.23
2018-06-29T14:23:36.467Z,7.10
2018-06-29T14:26:05.829Z,6.60
2018-06-29T14:28:34.512Z,6.60
2018-06-29T14:31:04.553Z,6.30
2018-06-29T14:33:33.259Z,6.17
2018-06-29T14:36:01.908Z,6.20
2018-06-29T14:38:30.654Z,7.00
2018-06-29T14:40:59.418Z,5.87
2018-06-29T14:43:28.066Z,6.70
2018-06-29T14:45:56.741Z,5.77
2018-06-29T14:48:26.252Z,6.23
2018-06-29T14:50:54.881Z,6.17
2018-06-29T14:53:23.546Z,5.63
2018-06-29T14:55:52.203Z,5.80
2018-06-29T14:58:20.951Z,5.63
2018-06-29T15:00:49.600Z,6.20
2018-06-29T15:03:18.356Z,5.70
2018-06-29T15:05:46.989Z,6.00
2018-06-29T15:08:15.633Z,6.43
2018-06-29T15:10:44.244Z,5.73
2018-06-29T15:13:12.925Z,5.80
2018-06-29T15:15:41.619Z,6.80
2018-06-29T15:18:10.260Z,5.63
2018-06-29T15:20:38.901Z,6.80
2018-06-29T15:23:07.654Z,6.90
2018-06-29T15:25:36.557Z,5.70
2018-06-29T15:28:06.322Z,6.30
2018-06-29T15:30:34.925Z,6.33
2018-06-29T15:33:03.552Z,5.93
2018-06-29T15:35:32.192Z,6.50
2018-06-29T15:38:00.874Z,7.13
2018-06-29T15:40:29.505Z,7.30
2018-06-29T15:42:58.155Z,6.03
2018-06-29T15:45:26.924Z,6.67
2018-06-29T15:47:56.459Z,6.97
2018-06-29T15:50:25.180Z,7.67
2018-06-29T15:52:54.754Z,7.00
2018-06-29T15:55:23.552Z,7.40
2018-06-29T15:57:52.232Z,8.30
2018-06-29T16:00:20.917Z,8.13
2018-06-29T16:02:49.611Z,8.30
2018-06-29T16:05:18.218Z,7.33
2018-06-29T16:07:46.956Z,7.87
2018-06-29T16:10:15.591Z,7.57
2018-06-29T16:12:44.246Z,7.90
2018-06-29T16:15:12.905Z,8.30
2018-06-29T16:17:41.570Z,8.20
2018-06-29T16:20:10.338Z,8.70
2018-06-29T16:22:39.013Z,8.30
2018-06-29T16:25:09.019Z,8.83
2018-06-29T16:27:37.666Z,9.07
2018-06-29T16:30:06.586Z,9.33
2018-06-29T16:32:35.280Z,8.43
2018-06-29T16:35:03.961Z,9.10
2018-06-29T16:37:32.613Z,9.10
2018-06-29T16:40:01.248Z,8.40
2018-06-29T16:42:29.953Z,8.17
2018-06-29T16:44:58.623Z,7.30
2018-06-29T16:47:27.285Z,7.10
2018-06-29T16:49:55.938Z,7.10
2018-06-29T16:52:24.625Z,7.10
2018-06-29T16:54:53.287Z,6.77
2018-06-29T16:57:21.930Z,6.70
2018-06-29T16:59:50.634Z,6.67
2018-06-29T17:02:19.275Z,6.50
2018-06-29T17:04:47.982Z,7.07
2018-06-29T17:07:16.735Z,6.33
2018-06-29T17:09:45.452Z,6.17
2018-06-29T17:12:14.245Z,5.63
2018-06-29T17:14:42.894Z,6.10
2018-06-29T17:17:11.509Z,6.17
2018-06-29T17:22:14.274Z,6.53
2018-06-29T17:24:44.425Z,6.07
2018-06-29T17:27:13.085Z,6.70
2018-06-29T17:29:41.797Z,6.10
2018-06-29T17:32:11.185Z,7.67
2018-06-29T17:34:39.903Z,7.20
2018-06-29T17:37:08.644Z,6.97
2018-06-29T17:39:37.345Z,7.27
2018-06-29T17:42:06.051Z,7.80
2018-06-29T17:44:34.710Z,6.90
2018-06-29T17:47:03.385Z,8.30
2018-06-29T17:49:32.074Z,8.70
2018-06-29T17:52:00.767Z,7.33
2018-06-29T17:54:29.466Z,8.53
2018-06-29T17:56:58.148Z,7.90
2018-06-29T17:59:26.758Z,8.03
2018-06-29T18:01:55.426Z,7.60
2018-06-29T18:04:24.094Z,8.13
2018-06-29T18:06:52.701Z,6.83
2018-06-29T18:09:21.378Z,8.10
2018-06-29T18:11:50.081Z,8.10
2018-06-29T18:14:18.653Z,9.27
2018-06-29T18:16:47.344Z,8.97
2018-06-29T18:19:15.989Z,8.50
2018-06-29T18:21:44.695Z,9.30
2018-06-29T18:24:13.348Z,8.30
2018-06-29T18:26:42.024Z,8.73
2018-06-29T18:29:11.156Z,8.63
2018-06-29T18:31:39.841Z,9.00
2018-06-29T18:34:08.551Z,9.20
2018-06-29T18:49:45.794Z,9.30
2018-06-29T18:52:14.513Z,9.20
2018-06-29T18:54:43.219Z,9.30
2018-06-29T18:57:12.406Z,8.77
2018-06-29T18:59:41.058Z,9.77
2018-06-29T19:02:09.893Z,9.67
2018-06-29T19:14:18.858Z,9.60
2018-06-29T19:16:47.633Z,10.07
2018-06-29T19:19:16.399Z,9.87
2018-06-29T19:21:45.467Z,10.83
2018-06-29T19:24:14.353Z,10.03
2018-06-29T19:26:43.098Z,9.90
2018-06-29T19:29:12.483Z,11.20
2018-06-29T19:31:41.248Z,9.63
2018-06-29T19:34:09.986Z,10.60
2018-06-29T19:36:38.678Z,10.50
2018-06-29T19:39:08.777Z,9.97
2018-06-29T19:41:38.074Z,9.80
2018-06-29T19:44:06.836Z,10.33
2018-06-29T19:46:35.596Z,10.97
2018-06-29T19:49:04.335Z,10.60
2018-06-29T19:51:33.049Z,9.40
2018-06-29T19:54:01.866Z,9.80
2018-06-29T19:56:30.762Z,10.53
2018-06-29T19:58:59.543Z,10.87
2018-06-29T20:01:28.406Z,10.20
2018-06-29T20:03:57.112Z,10.23
2018-06-29T20:06:25.959Z,10.57
2018-06-29T20:08:55.377Z,10.13
2018-06-29T20:11:24.140Z,11.50
2018-06-29T20:13:53.079Z,11.77
2018-06-29T20:16:23.755Z,10.67
2018-06-29T20:18:53.698Z,10.97
2018-06-29T20:21:22.639Z,10.37
2018-06-29T20:23:52.711Z,10.60
2018-06-29T20:26:21.765Z,9.80
2018-06-29T20:28:50.538Z,10.97
2018-06-29T20:31:24.007Z,10.80
2018-06-29T20:33:52.763Z,10.57
2018-06-29T20:36:21.600Z,11.07
2018-06-29T20:38:50.496Z,11.63
2018-06-29T20:41:19.142Z,10.93
2018-06-29T20:43:47.839Z,10.47
2018-06-29T20:46:17.227Z,10.77
2018-06-29T20:48:45.950Z,11.30
2018-06-29T20:51:15.534Z,11.30
2018-06-29T20:53:44.306Z,10.80
2018-06-29T20:56:13.583Z,10.83
2018-06-29T20:58:42.266Z,10.43
2018-06-29T21:01:11.061Z,11.67
2018-06-29T21:03:39.791Z,11.40
2018-06-29T21:06:08.529Z,10.27
2018-06-29T21:08:37.552Z,12.03
2018-06-29T21:11:06.342Z,10.83
2018-06-29T21:13:35.007Z,10.30
2018-06-29T21:16:03.710Z,9.97
2018-06-29T21:18:32.503Z,10.33
2018-06-29T21:21:01.314Z,10.23
2018-06-29T21:23:30.045Z,10.27
2018-06-29T21:25:58.785Z,11.63
2018-06-29T21:28:27.542Z,11.10
2018-06-29T21:30:56.274Z,11.07
2018-06-29T21:33:25.857Z,11.60
2018-06-29T21:35:54.550Z,10.90
2018-06-29T21:38:23.227Z,11.43
2018-06-29T21:40:52.140Z,10.50
2018-06-29T21:43:20.809Z,10.20
2018-06-29T21:45:49.478Z,10.43
2018-06-29T21:48:18.183Z,10.50
2018-06-29T21:50:46.920Z,10.63
2018-06-29T21:53:16.039Z,9.70
2018-06-29T21:55:44.751Z,10.73
2018-06-29T21:58:13.459Z,10.73
2018-06-29T22:00:44.282Z,10.30
2018-06-29T22:05:47.787Z,9.77
2018-06-29T22:08:17.042Z,10.50
2018-06-29T22:10:45.748Z,10.80
2018-06-29T22:13:14.683Z,9.70
2018-06-29T22:15:43.306Z,9.47
2018-06-29T22:18:12.010Z,10.00
2018-06-29T22:20:40.626Z,8.93
2018-06-29T22:23:09.290Z,10.07
2018-06-29T22:25:37.923Z,9.10
2018-06-29T22:28:06.755Z,9.40
2018-06-29T22:30:35.386Z,8.80
2018-06-29T22:33:04.011Z,8.73
2018-06-29T22:35:32.641Z,8.80
2018-06-29T22:38:01.256Z,9.20
2018-06-29T22:40:29.912Z,9.53
2018-06-29T22:42:58.602Z,8.93
2018-06-29T22:45:27.333Z,9.13
2018-06-29T22:47:55.950Z,8.53
2018-06-29T22:50:24.571Z,9.00
2018-06-29T22:52:53.213Z,9.73
2018-06-29T22:55:21.794Z,9.63
2018-06-29T22:57:50.442Z,8.80
2018-06-29T23:00:19.692Z,9.53
2018-06-29T23:02:48.340Z,9.60
2018-06-29T23:05:17.327Z,9.53
2018-06-29T23:07:45.918Z,9.70
2018-06-29T23:10:14.550Z,10.07
2018-06-29T23:12:43.165Z,10.43
2018-06-29T23:15:11.864Z,9.87
2018-06-29T23:17:40.508Z,10.40
2018-06-29T23:20:15.128Z,10.07
2018-06-29T23:22:43.747Z,9.60
2018-06-29T23:25:12.399Z,10.60
2018-06-29T23:27:40.994Z,10.23
2018-06-29T23:30:09.687Z,10.27
2018-06-29T23:32:38.310Z,11.57
2018-06-29T23:35:07.026Z,10.33
2018-06-29T23:37:35.687Z,11.40
2018-06-29T23:40:04.787Z,10.00
2018-06-29T23:42:33.446Z,11.50
2018-06-29T23:45:02.048Z,11.13
2018-06-29T23:47:30.693Z,10.40
2018-06-29T23:49:59.369Z,10.67
2018-06-29T23:52:28.024Z,10.67
2018-06-29T23:54:56.650Z,10.57
2018-06-29T23:57:25.285Z,10.70
2018-06-29T23:59:53.936Z,11.30
